Time;durP1;ratioP1;P1;durP2;ratioP2;P2;SDS_P1;SDS_P2;PMS_P1;PMS_P2;Temp;Humidity;BMP_temperature;BMP_pressure;BME280_temperature;BME280_humidity;BME280_pressure;Samples;Min_cycle;Max_cycle;Signal;HPM_P1;HPM_P2
2023/01/23 00:01:36;;;;;;;;;50.25;37.00;;;;;4.28;59.55;102785.00;4981294;28;45291;-50
2023/01/23 00:04:03;;;;;;;;;52.50;41.00;;;;;4.29;59.56;102778.94;4976307;28;45442;-50
2023/01/23 00:06:29;;;;;;;;;44.75;36.50;;;;;4.29;59.82;102781.53;4961943;28;45498;-47
2023/01/23 00:08:55;;;;;;;;;54.75;39.00;;;;;4.29;59.61;102778.94;4961716;28;45473;-51
2023/01/23 00:11:23;;;;;;;;;49.25;37.75;;;;;4.29;59.67;102778.94;4966682;28;45316;-47
2023/01/23 00:13:48;;;;;;;;;47.75;40.00;;;;;4.28;59.96;102778.06;4975323;28;45263;-51
2023/01/23 00:16:16;;;;;;;;;44.50;40.25;;;;;4.19;59.53;102764.66;4961709;28;45469;-47
2023/01/23 00:18:42;;;;;;;;;45.25;37.25;;;;;4.20;59.97;102758.59;4961604;28;46464;-46
2023/01/23 00:21:11;;;;;;;;;53.00;42.00;;;;;4.29;59.79;102772.03;4961725;28;45678;-48
2023/01/23 00:23:36;;;;;;;;;50.00;37.75;;;;;4.30;60.12;102781.63;4968724;28;45321;-47
2023/01/23 00:26:06;;;;;;;;;53.00;39.75;;;;;4.31;59.54;102777.31;4967505;28;45267;-48
2023/01/23 00:28:32;;;;;;;;;57.00;40.75;;;;;4.30;59.97;102775.53;4969271;28;46393;-48
2023/01/23 00:31:06;;;;;;;;;51.75;41.75;;;;;4.27;59.73;102773.66;4967518;28;45365;-49
2023/01/23 00:33:32;;;;;;;;;35.75;31.75;;;;;4.27;59.73;102772.78;4981022;28;45346;-47
2023/01/23 00:35:57;;;;;;;;;54.00;41.50;;;;;4.26;59.49;102771.00;4978613;28;45346;-50
2023/01/23 00:38:22;;;;;;;;;53.25;41.00;;;;;4.29;59.61;102779.84;4969964;28;46499;-49
2023/01/23 00:40:48;;;;;;;;;57.00;40.50;;;;;4.29;59.99;102778.94;4978759;28;45395;-46
2023/01/23 00:43:13;;;;;;;;;56.00;40.50;;;;;4.27;59.65;102775.41;4961208;28;45374;-48
2023/01/23 00:45:38;;;;;;;;;51.25;40.50;;;;;4.31;59.57;102788.59;4960984;28;45321;-47
2023/01/23 00:48:04;;;;;;;;;51.00;41.75;;;;;4.29;59.43;102785.06;4961361;28;45908;-47
2023/01/23 00:50:29;;;;;;;;;42.75;36.25;;;;;4.30;59.97;102783.31;4961301;28;45466;-49
2023/01/23 00:52:54;;;;;;;;;50.00;38.00;;;;;4.27;59.53;102783.22;4961527;28;45537;-47
2023/01/23 00:55:20;;;;;;;;;48.50;37.75;;;;;4.27;59.87;102788.41;4960930;28;45556;-47
2023/01/23 00:57:45;;;;;;;;;53.00;38.75;;;;;4.29;59.78;102789.34;4960946;28;46110;-48
2023/01/23 01:00:11;;;;;;;;;53.00;39.75;;;;;4.28;59.72;102790.19;4963529;28;45316;-48
2023/01/23 01:02:36;;;;;;;;;48.25;37.25;;;;;4.25;59.76;102774.44;4967834;28;45236;-48
2023/01/23 01:05:02;;;;;;;;;51.75;36.75;;;;;4.30;59.92;102788.53;4967233;28;45171;-50
2023/01/23 01:07:27;;;;;;;;;52.50;40.25;;;;;4.30;59.93;102783.31;4960964;28;46984;-46
2023/01/23 01:09:53;;;;;;;;;56.50;43.50;;;;;4.30;59.53;102775.53;4961075;28;45141;-47
2023/01/23 01:12:18;;;;;;;;;46.75;39.25;;;;;4.27;60.08;102778.00;4973704;28;45428;-47
2023/01/23 01:14:44;;;;;;;;;52.00;38.25;;;;;4.28;60.03;102774.59;4966737;28;45180;-48
2023/01/23 01:17:09;;;;;;;;;51.75;38.50;;;;;4.26;59.79;102784.03;4943581;28;45441;-50
2023/01/23 01:19:35;;;;;;;;;53.00;38.50;;;;;4.28;59.81;102778.06;4961369;28;45382;-49
2023/01/23 01:22:00;;;;;;;;;50.75;40.75;;;;;4.29;59.96;102778.94;4980554;28;45345;-47
2023/01/23 01:24:26;;;;;;;;;49.00;38.00;;;;;4.30;59.86;102780.72;4966169;28;45339;-49
2023/01/23 01:26:51;;;;;;;;;50.75;39.50;;;;;4.28;60.25;102770.25;4973145;28;45827;-47
2023/01/23 01:29:17;;;;;;;;;49.00;37.50;;;;;4.25;59.54;102769.22;4972873;28;45318;-48
2023/01/23 01:31:42;;;;;;;;;53.25;40.00;;;;;4.27;59.81;102770.19;4978387;28;45557;-50
2023/01/23 01:34:07;;;;;;;;;46.75;37.25;;;;;4.27;59.93;102772.78;4980226;28;45322;-46
2023/01/23 01:36:33;;;;;;;;;57.00;40.75;;;;;4.26;60.11;102771.00;4980209;28;45464;-46
2023/01/23 01:38:58;;;;;;;;;54.50;41.00;;;;;4.23;59.85;102762.22;4980123;28;45314;-48
2023/01/23 01:41:23;;;;;;;;;54.00;41.75;;;;;4.28;60.05;102766.78;4980402;28;45328;-46
2023/01/23 01:43:50;;;;;;;;;58.00;40.50;;;;;4.26;59.70;102760.59;4979908;28;45504;-48
2023/01/23 01:46:25;;;;;;;;;51.75;40.50;;;;;4.28;60.06;102762.44;4980038;28;46555;-49
2023/01/23 01:49:14;;;;;;;;;43.75;36.50;;;;;4.26;60.00;102758.88;4983729;28;45250;-45
2023/01/23 01:51:46;;;;;;;;;47.50;37.50;;;;;4.29;60.02;102760.72;4951925;28;45965;-46
2023/01/23 01:54:23;;;;;;;;;48.50;41.00;;;;;4.28;60.05;102748.56;4972541;28;45587;-47
2023/01/23 01:57:06;;;;;;;;;54.25;40.00;;;;;4.23;59.94;102746.63;4972690;28;47172;-49
2023/01/23 02:00:04;;;;;;;;;51.00;40.25;;;;;4.23;60.20;102749.22;4973984;28;45279;-46
2023/01/23 02:02:44;;;;;;;;;59.75;44.50;;;;;4.21;60.30;102756.09;4973467;28;45534;-49
2023/01/23 02:05:17;;;;;;;;;50.75;40.25;;;;;4.21;60.28;102755.19;4974829;28;45452;-47
2023/01/23 02:07:53;;;;;;;;;56.00;45.00;;;;;4.17;60.17;102751.53;4973783;28;46013;-47
2023/01/23 02:10:19;;;;;;;;;51.75;37.00;;;;;4.19;59.74;102755.13;4972061;28;45955;-48
2023/01/23 02:12:46;;;;;;;;;52.75;40.25;;;;;4.22;60.36;102754.38;4974267;28;45478;-45
2023/01/23 02:15:12;;;;;;;;;55.75;41.25;;;;;4.19;60.33;102749.91;4973615;28;45441;-45
2023/01/23 02:17:37;;;;;;;;;46.25;38.25;;;;;4.22;60.14;102755.25;4974956;28;45469;-49
2023/01/23 02:20:20;;;;;;;;;59.00;45.25;;;;;4.25;59.62;102751.00;4972063;28;45413;-50
2023/01/23 02:23:09;;;;;;;;;53.00;41.75;;;;;4.26;60.09;102744.97;4978198;28;45387;-51
2023/01/23 02:25:42;;;;;;;;;55.50;40.50;;;;;4.25;60.30;102738.00;4978938;28;45402;-50
2023/01/23 02:28:09;;;;;;;;;52.00;42.25;;;;;4.23;59.92;102738.81;4961902;28;45370;-46
2023/01/23 02:30:36;;;;;;;;;47.50;38.00;;;;;4.27;60.40;102749.38;4979457;28;45688;-46
2023/01/23 02:33:30;;;;;;;;;50.25;42.00;;;;;4.28;59.87;102743.34;4962103;28;45339;-47
2023/01/23 02:36:00;;;;;;;;;47.75;40.50;;;;;4.25;60.01;102743.19;4979341;28;45439;-46
2023/01/23 02:38:34;;;;;;;;;54.25;42.50;;;;;4.26;60.37;102748.47;4982856;28;45377;-45
2023/01/23 02:41:02;;;;;;;;;48.75;37.50;;;;;4.27;59.98;102757.19;4982636;28;45323;-49
2023/01/23 02:43:34;;;;;;;;;51.25;40.50;;;;;4.26;60.31;102756.28;4982848;28;45186;-46
2023/01/23 02:46:10;;;;;;;;;47.75;35.00;;;;;4.27;60.29;102755.47;4965100;28;45515;-45
2023/01/23 02:48:42;;;;;;;;;42.75;38.50;;;;;4.26;60.13;102752.78;4982698;28;45323;-48
2023/01/23 02:51:08;;;;;;;;;48.50;40.50;;;;;4.26;60.26;102755.41;4982652;28;45385;-48
2023/01/23 02:53:34;;;;;;;;;45.50;37.00;;;;;4.27;60.24;102771.06;4981477;28;45348;-47
2023/01/23 02:55:59;;;;;;;;;49.00;39.25;;;;;4.27;60.37;102754.56;4982362;28;45307;-45
2023/01/23 03:01:09;;;;;;;;;47.50;37.75;;;;;4.26;60.09;102768.41;4982296;28;45234;-47
2023/01/23 03:03:35;;;;;;;;;48.75;40.50;;;;;4.27;60.50;102767.59;4955424;28;45604;-50
2023/01/23 03:06:02;;;;;;;;;49.00;40.75;;;;;4.28;60.62;102766.78;4964871;28;45441;-46
2023/01/23 03:08:32;;;;;;;;;42.75;38.00;;;;;4.25;60.24;102764.03;4982319;28;45245;-47
2023/01/23 03:10:59;;;;;;;;;51.25;40.25;;;;;4.22;60.26;102768.25;4980858;28;45336;-47
2023/01/23 03:13:24;;;;;;;;;60.50;42.50;;;;;4.25;60.42;102769.22;4982450;28;45316;-48
2023/01/23 03:15:51;;;;;;;;;45.75;35.25;;;;;4.26;60.17;102771.00;4981952;28;45212;-46
2023/01/23 03:18:17;;;;;;;;;46.00;37.00;;;;;4.25;60.46;102772.69;4982062;28;45875;-47
2023/01/23 03:20:42;;;;;;;;;58.25;42.00;;;;;4.22;60.58;102760.44;4982340;28;45135;-49
2023/01/23 03:23:08;;;;;;;;;55.50;43.25;;;;;4.25;60.61;102756.22;4982212;28;45484;-51
2023/01/23 03:25:33;;;;;;;;;53.75;41.00;;;;;4.26;60.21;102765.81;4982162;28;45246;-48
2023/01/23 03:27:58;;;;;;;;;47.00;39.00;;;;;4.25;60.16;102766.63;4981808;28;46425;-48
2023/01/23 03:30:24;;;;;;;;;53.00;42.75;;;;;4.28;60.36;102769.38;4982000;28;45406;-50
2023/01/23 03:32:50;;;;;;;;;53.50;41.00;;;;;4.28;60.37;102759.84;4982129;28;45262;-50
2023/01/23 03:35:19;;;;;;;;;52.25;42.25;;;;;4.28;60.80;102765.06;4980625;28;45347;-49
2023/01/23 03:37:45;;;;;;;;;57.50;41.00;;;;;4.28;60.45;102766.78;4981771;28;47061;-49
2023/01/23 03:43:00;;;;;;;;;55.50;39.00;;;;;4.28;60.62;102753.75;4981759;28;45298;-47
2023/01/23 03:45:25;;;;;;;;;51.50;43.00;;;;;4.28;60.52;102757.25;4981438;28;45348;-48
2023/01/23 03:47:50;;;;;;;;;52.00;40.50;;;;;4.29;60.47;102761.63;4981366;28;46222;-48
2023/01/23 03:50:16;;;;;;;;;58.25;40.50;;;;;4.31;60.44;102761.69;4981804;28;45384;-46
2023/01/23 03:52:41;;;;;;;;;49.25;40.50;;;;;4.32;60.64;102771.28;4981829;28;45313;-48
2023/01/23 03:55:07;;;;;;;;;52.00;41.75;;;;;4.31;60.32;102770.38;4981717;28;45306;-49
2023/01/23 03:57:32;;;;;;;;;52.00;41.25;;;;;4.30;60.79;102773.81;4981327;28;45921;-47
2023/01/23 03:59:58;;;;;;;;;56.75;44.75;;;;;4.31;60.30;102774.72;4981378;28;45384;-49
2023/01/23 04:02:23;;;;;;;;;58.00;41.00;;;;;4.33;60.23;102773.94;4981497;28;45361;-49
2023/01/23 04:04:49;;;;;;;;;58.00;42.25;;;;;4.33;60.52;102773.06;4981433;28;45423;-49
2023/01/23 04:07:14;;;;;;;;;43.50;34.25;;;;;4.30;60.36;102768.63;4963779;28;48337;-48
2023/01/23 04:09:39;;;;;;;;;46.25;39.00;;;;;4.31;60.64;102761.69;4964127;28;45508;-50
2023/01/23 04:12:05;;;;;;;;;51.50;41.50;;;;;4.34;60.52;102772.22;4981325;28;45242;-51
2023/01/23 04:14:35;;;;;;;;;61.75;45.25;;;;;4.31;60.81;102759.97;4981076;28;45174;-47
2023/01/23 04:17:01;;;;;;;;;59.25;43.50;;;;;4.34;60.64;102759.19;4980975;28;46081;-46
2023/01/23 04:19:26;;;;;;;;;53.75;40.50;;;;;4.31;60.77;102753.88;4981310;28;45371;-49
2023/01/23 04:21:51;;;;;;;;;50.75;39.25;;;;;4.29;60.52;102763.31;4981310;28;45655;-48
2023/01/23 04:24:17;;;;;;;;;49.50;37.25;;;;;4.30;60.23;102770.31;4981233;28;45279;-48
2023/01/23 04:26:43;;;;;;;;;59.00;42.25;;;;;4.30;60.88;102767.72;4979687;28;46470;-49
2023/01/23 04:29:09;;;;;;;;;44.50;37.00;;;;;4.31;60.37;102774.72;4980858;28;45350;-46
2023/01/23 04:31:34;;;;;;;;;49.00;40.50;;;;;4.22;60.32;102760.44;4981180;28;45294;-51
2023/01/23 04:33:59;;;;;;;;;55.00;42.50;;;;;4.31;60.75;102761.69;4981145;28;45407;-48
2023/01/23 04:36:25;;;;;;;;;48.00;39.75;;;;;4.32;60.72;102760.88;4980916;28;45411;-49
2023/01/23 04:38:50;;;;;;;;;56.75;40.00;;;;;4.34;60.40;102773.13;4981156;28;45298;-49
2023/01/23 04:41:22;;;;;;;;;47.25;38.25;;;;;4.34;60.62;102778.34;4980934;28;45524;-47
2023/01/23 04:43:47;;;;;;;;;53.25;41.25;;;;;4.38;60.71;102779.38;4980653;28;45503;-50
2023/01/23 04:46:13;;;;;;;;;50.50;40.50;;;;;4.37;60.31;102781.06;4980784;28;45913;-49
2023/01/23 04:48:38;;;;;;;;;57.25;41.50;;;;;4.38;60.58;102781.97;4981019;28;45322;-48
2023/01/23 04:51:04;;;;;;;;;55.00;40.00;;;;;4.37;60.74;102786.28;4980822;28;45303;-50
2023/01/23 04:53:29;;;;;;;;;49.00;40.00;;;;;4.39;60.35;102783.75;4980837;28;45302;-46
2023/01/23 04:55:55;;;;;;;;;47.00;36.50;;;;;4.39;60.56;102775.94;4980458;28;46289;-47
2023/01/23 04:58:20;;;;;;;;;53.25;40.00;;;;;4.37;60.47;102774.97;4980753;28;45199;-47
2023/01/23 05:00:46;;;;;;;;;56.25;40.50;;;;;4.38;60.65;102771.56;4962409;28;45353;-47
2023/01/23 05:03:13;;;;;;;;;51.00;38.00;;;;;4.41;60.41;102771.69;4980719;28;45480;-47
2023/01/23 05:05:38;;;;;;;;;42.00;36.25;;;;;4.41;60.33;102776.88;4980378;28;45417;-50
2023/01/23 05:08:04;;;;;;;;;50.50;41.50;;;;;4.38;60.75;102776.75;4963108;28;45515;-50
2023/01/23 05:10:29;;;;;;;;;41.25;34.25;;;;;4.36;60.72;102774.06;4980609;28;45171;-48
2023/01/23 05:12:55;;;;;;;;;48.00;39.25;;;;;4.38;60.41;102780.25;4980347;28;45208;-49
2023/01/23 05:15:20;;;;;;;;;52.75;39.25;;;;;4.41;60.82;102779.50;4979873;28;45378;-49
2023/01/23 05:17:46;;;;;;;;;47.50;38.25;;;;;4.41;60.75;102779.50;4980457;28;45258;-47
2023/01/23 05:20:12;;;;;;;;;51.75;40.75;;;;;4.42;60.81;102786.47;4980572;28;45385;-49
2023/01/23 05:22:50;;;;;;;;;54.25;40.50;;;;;4.45;60.46;102785.72;4942657;28;45632;-46
2023/01/23 05:25:16;;;;;;;;;51.00;38.75;;;;;4.46;60.52;102785.78;4972814;28;46041;-47
2023/01/23 05:27:41;;;;;;;;;55.50;43.00;;;;;4.47;60.65;102786.69;4983655;28;45321;-47
2023/01/23 05:30:07;;;;;;;;;45.75;36.50;;;;;4.47;60.25;102792.78;4984741;28;45591;-47
2023/01/23 05:32:33;;;;;;;;;54.75;41.25;;;;;4.47;60.59;102791.91;4974894;28;45579;-50
2023/01/23 05:34:58;;;;;;;;;54.50;42.00;;;;;4.46;60.80;102797.94;4976015;28;46183;-51
2023/01/23 05:37:24;;;;;;;;;51.00;36.50;;;;;4.44;60.58;102791.75;4983202;28;45491;-50
2023/01/23 05:39:49;;;;;;;;;43.75;37.50;;;;;4.48;60.63;102799.78;4974487;28;45438;-49
2023/01/23 05:42:15;;;;;;;;;47.25;37.00;;;;;4.47;60.76;102797.97;4975130;28;45586;-49
2023/01/23 05:44:40;;;;;;;;;49.00;38.00;;;;;4.48;60.40;102809.31;4974759;28;45472;-49
2023/01/23 05:47:05;;;;;;;;;54.25;40.00;;;;;4.47;60.64;102805.78;4974355;28;45462;-51
2023/01/23 05:49:31;;;;;;;;;53.75;37.00;;;;;4.47;60.59;102800.59;4974960;28;45637;-46
2023/01/23 05:51:56;;;;;;;;;48.50;39.00;;;;;4.46;61.02;102803.13;4969547;28;45663;-50
2023/01/23 05:54:22;;;;;;;;;47.25;38.00;;;;;4.42;60.95;102809.91;4972851;28;46115;-50
2023/01/23 05:56:47;;;;;;;;;46.50;37.25;;;;;4.43;60.50;102810.78;4975389;28;45425;-49
2023/01/23 05:59:12;;;;;;;;;43.75;36.00;;;;;4.39;60.98;102810.66;4978088;28;45411;-47
2023/01/23 06:01:37;;;;;;;;;51.75;39.50;;;;;4.36;61.01;102814.84;4978147;28;45467;-48
2023/01/23 06:04:03;;;;;;;;;47.75;36.50;;;;;4.37;60.92;102820.13;4978677;28;46123;-47
2023/01/23 06:06:28;;;;;;;;;53.25;39.75;;;;;4.36;60.71;102820.06;4961982;28;45395;-47
2023/01/23 06:08:54;;;;;;;;;42.50;38.75;;;;;4.39;60.65;102825.41;4980014;28;45333;-47
2023/01/23 06:11:19;;;;;;;;;52.00;39.50;;;;;4.39;60.66;102822.81;4981570;28;45572;-48
2023/01/23 06:13:44;;;;;;;;;55.00;43.25;;;;;4.38;60.96;102823.63;4982842;28;46412;-49
2023/01/23 06:16:09;;;;;;;;;55.75;40.25;;;;;4.37;60.68;102824.44;4983066;28;45426;-52
2023/01/23 06:18:35;;;;;;;;;50.50;36.75;;;;;4.39;60.55;102825.41;4965703;28;45340;-46
2023/01/23 06:21:01;;;;;;;;;44.25;37.00;;;;;4.39;60.90;102826.28;4983312;28;45281;-50
2023/01/23 06:23:27;;;;;;;;;36.75;29.00;;;;;4.39;60.40;102826.28;4965420;28;46333;-46
2023/01/23 06:25:52;;;;;;;;;51.75;36.25;;;;;4.41;60.68;102833.28;4983161;28;45324;-50
2023/01/23 06:28:17;;;;;;;;;41.50;36.75;;;;;4.41;60.79;102834.16;4982863;28;45315;-50
2023/01/23 06:30:43;;;;;;;;;45.75;35.00;;;;;4.38;60.53;102834.91;4964961;28;45410;-48
2023/01/23 06:33:08;;;;;;;;;39.00;34.25;;;;;4.44;60.88;102831.72;4982491;28;45432;-50
2023/01/23 06:35:33;;;;;;;;;43.50;34.25;;;;;4.42;60.83;102832.47;4977841;28;47095;-47
2023/01/23 06:37:59;;;;;;;;;37.75;34.25;;;;;4.44;60.59;102831.72;4953483;28;45382;-49
2023/01/23 06:40:24;;;;;;;;;41.75;36.50;;;;;4.44;60.87;102830.81;4978246;28;45249;-47
2023/01/23 06:42:53;;;;;;;;;41.00;37.25;;;;;4.43;60.97;102827.31;4976636;28;47030;-51
2023/01/23 06:45:19;;;;;;;;;42.00;33.75;;;;;4.43;60.94;102829.94;4982021;28;45408;-49
2023/01/23 06:47:44;;;;;;;;;48.25;37.25;;;;;4.47;60.89;102837.03;4982635;28;45317;-48
2023/01/23 06:50:10;;;;;;;;;43.75;36.75;;;;;4.46;60.91;102837.84;4982049;28;45401;-48
2023/01/23 06:52:35;;;;;;;;;50.50;37.75;;;;;4.47;60.55;102834.44;4979651;28;45829;-48
2023/01/23 06:55:00;;;;;;;;;44.75;38.25;;;;;4.48;60.80;102835.34;4979845;28;45443;-49
2023/01/23 06:57:26;;;;;;;;;40.50;34.50;;;;;4.45;60.72;102836.06;4982347;28;45350;-49
2023/01/23 06:59:51;;;;;;;;;41.25;31.25;;;;;4.46;60.66;102837.84;4981489;28;45162;-47
2023/01/23 07:02:16;;;;;;;;;42.50;35.75;;;;;4.42;60.83;102828.13;4982242;28;46119;-51
2023/01/23 07:04:42;;;;;;;;;41.50;34.50;;;;;4.48;60.79;102835.34;4981598;28;45326;-46
2023/01/23 07:07:07;;;;;;;;;45.75;34.25;;;;;4.48;60.85;102835.34;4982361;28;45290;-48
2023/01/23 07:09:33;;;;;;;;;45.50;32.75;;;;;4.46;60.55;102837.84;4979967;28;45344;-49
2023/01/23 07:11:58;;;;;;;;;45.25;38.75;;;;;4.47;60.44;102842.25;4983586;28;46047;-48
2023/01/23 07:14:25;;;;;;;;;47.25;34.50;;;;;4.47;60.75;102838.78;4983542;28;45624;-50
2023/01/23 07:16:53;;;;;;;;;40.25;36.25;;;;;4.47;60.31;102836.16;4981987;28;45449;-48
2023/01/23 07:19:18;;;;;;;;;38.25;31.25;;;;;4.48;60.72;102844.03;4981606;28;45371;-45
2023/01/23 07:21:43;;;;;;;;;46.00;36.50;;;;;4.45;60.86;102846.47;4981418;28;45360;-46
2023/01/23 07:24:09;;;;;;;;;42.50;37.25;;;;;4.47;60.75;102843.97;4981059;28;45353;-45
2023/01/23 07:26:34;;;;;;;;;45.25;36.25;;;;;4.48;60.84;102856.19;4981955;28;45445;-47
2023/01/23 07:28:59;;;;;;;;;37.25;34.75;;;;;4.48;60.72;102851.84;4981151;28;45254;-48
2023/01/23 07:31:25;;;;;;;;;45.50;36.75;;;;;4.47;60.89;102849.19;4982155;28;45411;-46
2023/01/23 07:33:50;;;;;;;;;44.50;32.75;;;;;4.49;60.85;102853.63;4980871;28;45247;-46
2023/01/23 07:36:17;;;;;;;;;39.75;32.50;;;;;4.48;60.77;102850.97;4981546;28;45406;-47
2023/01/23 07:38:43;;;;;;;;;39.00;31.50;;;;;4.49;60.87;102848.44;4981410;28;45252;-46
2023/01/23 07:41:08;;;;;;;;;49.25;38.25;;;;;4.50;60.88;102855.41;4981610;28;45278;-46
2023/01/23 07:43:34;;;;;;;;;42.50;35.75;;;;;4.49;60.71;102853.63;4980796;28;45445;-47
2023/01/23 07:46:00;;;;;;;;;40.00;31.25;;;;;4.52;60.83;102861.56;4981832;28;45468;-50
2023/01/23 07:48:26;;;;;;;;;39.50;34.00;;;;;4.52;60.68;102853.75;4981426;28;45365;-48
2023/01/23 07:50:52;;;;;;;;;45.25;36.75;;;;;4.52;60.71;102856.38;4981352;28;45397;-48
2023/01/23 07:53:17;;;;;;;;;39.25;34.00;;;;;4.52;60.70;102852.88;4981254;28;45435;-50
2023/01/23 07:55:43;;;;;;;;;38.25;35.50;;;;;4.52;60.51;102851.16;4981670;28;45903;-49
2023/01/23 07:58:08;;;;;;;;;35.00;32.75;;;;;4.51;60.80;102849.38;4981196;28;45250;-51
2023/01/23 08:00:34;;;;;;;;;43.00;37.25;;;;;4.53;60.77;102852.06;4980811;28;45934;-52
2023/01/23 08:02:59;;;;;;;;;33.00;28.75;;;;;4.50;60.84;102839.81;4981184;28;45242;-49
2023/01/23 08:05:25;;;;;;;;;47.50;36.25;;;;;4.53;60.63;102852.06;4981218;28;45381;-49
2023/01/23 08:07:51;;;;;;;;;48.00;37.00;;;;;4.52;60.66;102848.56;4981083;28;45579;-49
2023/01/23 08:10:16;;;;;;;;;51.25;39.50;;;;;4.54;60.83;102851.22;4981123;28;47156;-48
2023/01/23 08:12:41;;;;;;;;;38.25;31.50;;;;;4.55;60.74;102847.78;4974948;28;45323;-49
2023/01/23 08:15:07;;;;;;;;;43.00;37.00;;;;;4.56;60.72;102842.66;4981004;28;45409;-47
2023/01/23 08:17:33;;;;;;;;;44.75;35.25;;;;;4.54;60.87;102839.09;4980824;28;45574;-47
2023/01/23 08:19:58;;;;;;;;;50.25;39.50;;;;;4.59;60.42;102854.03;4981222;28;46118;-48
2023/01/23 08:22:23;;;;;;;;;52.25;38.25;;;;;4.59;60.54;102854.94;4980736;28;45408;-49
2023/01/23 08:24:49;;;;;;;;;43.75;34.75;;;;;4.60;60.87;102853.22;4981181;28;45217;-48
2023/01/23 08:27:14;;;;;;;;;35.50;32.75;;;;;4.59;60.70;102859.25;4981133;28;45422;-48
2023/01/23 08:29:39;;;;;;;;;49.25;39.25;;;;;4.60;60.67;102861.91;4980694;28;46009;-48
2023/01/23 08:32:05;;;;;;;;;43.75;37.75;;;;;4.61;60.86;102855.88;4980753;28;45337;-46
2023/01/23 08:34:30;;;;;;;;;37.50;35.25;;;;;4.61;60.89;102849.78;4962535;28;45415;-51
2023/01/23 08:36:56;;;;;;;;;42.00;32.75;;;;;4.63;60.96;102856.84;4980028;28;45516;-50
2023/01/23 08:39:23;;;;;;;;;53.00;39.75;;;;;4.65;60.61;102851.69;4978576;28;46289;-48
2023/01/23 08:41:49;;;;;;;;;53.25;39.25;;;;;4.67;60.57;102860.50;4980664;28;45415;-48
2023/01/23 08:44:14;;;;;;;;;43.50;37.25;;;;;4.69;60.73;102862.34;4980068;28;45309;-50
2023/01/23 08:46:39;;;;;;;;;43.75;36.00;;;;;4.70;60.92;102850.19;4967144;28;45335;-50
2023/01/23 08:49:05;;;;;;;;;41.75;35.00;;;;;4.68;60.59;102854.47;4961517;28;46155;-50
2023/01/23 08:51:30;;;;;;;;;47.50;38.75;;;;;4.73;60.77;102852.94;4943896;28;45395;-47
2023/01/23 08:53:55;;;;;;;;;54.25;41.00;;;;;4.73;61.03;102847.72;4961717;28;45236;-47
2023/01/23 08:56:22;;;;;;;;;37.00;29.50;;;;;4.78;60.47;102851.44;4955928;28;45748;-46
2023/01/23 08:58:48;;;;;;;;;38.50;32.75;;;;;4.81;60.40;102854.16;4980161;28;46326;-49
2023/01/23 09:01:19;;;;;;;;;43.00;34.25;;;;;4.85;60.87;102852.56;4976050;28;45243;-48
2023/01/23 09:03:46;;;;;;;;;44.50;36.00;;;;;4.85;60.60;102845.63;4974255;28;45315;-47
2023/01/23 09:06:13;;;;;;;;;51.50;39.25;;;;;4.90;60.77;102844.97;4980390;28;45342;-50
2023/01/23 09:08:38;;;;;;;;;42.50;34.00;;;;;4.91;60.48;102850.22;4980217;28;46066;-51
2023/01/23 09:11:06;;;;;;;;;53.00;34.75;;;;;4.94;60.73;102852.06;4980025;28;45254;-50
2023/01/23 09:13:32;;;;;;;;;47.25;38.50;;;;;4.95;60.75;102851.25;4980394;28;45374;-48
2023/01/23 09:15:58;;;;;;;;;43.25;38.75;;;;;4.95;60.96;102853.88;4980172;28;45381;-47
2023/01/23 09:18:24;;;;;;;;;46.75;36.50;;;;;4.96;60.60;102855.66;4980274;28;46128;-46
2023/01/23 09:20:50;;;;;;;;;46.00;38.00;;;;;4.97;60.94;102863.53;4980133;28;45252;-47
2023/01/23 09:23:15;;;;;;;;;41.25;35.25;;;;;5.00;60.67;102865.38;4980584;28;45267;-50
2023/01/23 09:25:41;;;;;;;;;46.25;36.25;;;;;5.03;60.76;102868.09;4979794;28;45421;-49
2023/01/23 09:28:07;;;;;;;;;47.00;36.75;;;;;5.07;60.54;102871.72;4980173;28;45457;-48
2023/01/23 09:30:32;;;;;;;;;43.75;35.75;;;;;5.08;60.45;102874.41;4979822;28;45306;-49
2023/01/23 09:32:57;;;;;;;;;33.75;31.00;;;;;5.10;60.63;102882.31;4980495;28;45379;-48
2023/01/23 09:35:23;;;;;;;;;49.50;37.25;;;;;5.11;60.65;102884.97;4979804;28;45424;-48
2023/01/23 09:37:58;;;;;;;;;41.75;32.00;;;;;5.13;60.72;102879.81;4978720;28;46067;-47
2023/01/23 09:40:28;;;;;;;;;35.25;32.50;;;;;5.13;60.73;102893.75;4978566;28;45409;-50
2023/01/23 16:14:13;;;;;;;;;23.75;20.25;;;;;5.91;59.16;102753.34;4940341;28;45242;-49
2023/01/23 16:16:39;;;;;;;;;30.00;24.75;;;;;5.92;59.13;102755.13;4942698;28;45439;-46
2023/01/23 16:19:04;;;;;;;;;25.25;21.50;;;;;5.91;58.96;102742.91;4942480;28;45225;-49
2023/01/23 16:21:29;;;;;;;;;31.00;26.50;;;;;5.91;59.20;102753.34;4925238;28;46383;-46
2023/01/23 16:23:56;;;;;;;;;28.75;25.75;;;;;5.93;59.17;102751.69;4942192;28;45225;-47
2023/01/23 16:26:25;;;;;;;;;26.50;23.25;;;;;5.93;59.23;102756.91;4942595;28;45330;-49
2023/01/23 16:28:50;;;;;;;;;26.25;25.25;;;;;5.93;59.07;102751.69;4941895;28;45541;-46
2023/01/23 16:31:16;;;;;;;;;28.25;23.00;;;;;5.92;59.00;102752.53;4949300;28;45420;-48
2023/01/23 16:33:42;;;;;;;;;26.50;24.50;;;;;5.89;59.22;102758.53;4949071;28;45368;-50
2023/01/23 16:36:16;;;;;;;;;19.50;14.50;;;;;5.89;59.12;102750.69;4935838;28;45438;-46
2023/01/23 16:38:50;;;;;;;;;24.50;18.75;;;;;5.87;58.97;102754.97;4950770;28;45390;-46
2023/01/23 16:41:16;;;;;;;;;24.75;21.00;;;;;5.90;59.47;102762.91;4939374;28;46352;-48
2023/01/23 16:43:42;;;;;;;;;28.50;22.00;;;;;5.88;59.03;102761.09;4947322;28;45634;-50
2023/01/23 16:46:09;;;;;;;;;25.50;22.25;;;;;5.90;58.99;102775.06;4953006;28;46313;-51
2023/01/23 16:48:34;;;;;;;;;27.50;21.25;;;;;5.89;58.93;102779.41;4950144;28;45466;-49
2023/01/23 16:51:22;;;;;;;;;24.50;21.75;;;;;5.91;58.94;102775.13;4947443;28;46173;-48
2023/01/23 16:53:57;;;;;;;;;29.00;24.25;;;;;5.89;58.98;102771.56;4942040;28;45409;-48
2023/01/23 16:56:30;;;;;;;;;26.00;22.50;;;;;5.90;58.93;102775.06;4936875;28;45295;-49
2023/01/23 16:58:55;;;;;;;;;9.50;6.00;;;;;5.89;59.12;102766.34;4920652;28;45637;-49
2023/01/23 17:01:23;;;;;;;;;25.00;22.50;;;;;5.89;58.79;102768.06;4923555;28;46161;-51
2023/01/23 17:03:55;;;;;;;;;27.00;24.25;;;;;5.86;58.98;102776.66;4938786;28;45493;-48
2023/01/23 17:06:21;;;;;;;;;26.75;22.50;;;;;5.89;58.85;102787.22;4940123;28;45487;-48
2023/01/23 17:08:46;;;;;;;;;27.25;22.25;;;;;5.88;58.87;102788.06;4940310;28;45340;-48
2023/01/23 17:11:48;;;;;;;;;26.75;23.25;;;;;5.88;59.06;102793.28;4939886;28;47059;-48
2023/01/23 17:14:15;;;;;;;;;30.25;24.75;;;;;5.86;58.99;102790.63;4938249;28;45701;-48
2023/01/23 17:16:41;;;;;;;;;25.50;23.50;;;;;5.84;58.95;102791.38;4940364;28;45435;-46
2023/01/23 17:19:31;;;;;;;;;32.50;30.50;;;;;5.88;58.79;102797.63;4922272;28;46299;-48
2023/01/23 17:22:01;;;;;;;;;29.00;24.75;;;;;5.86;58.91;102802.75;4933247;28;46190;-47
2023/01/23 17:24:26;;;;;;;;;27.00;24.50;;;;;5.82;58.85;102796.56;4922722;28;45586;-51
2023/01/23 17:26:52;;;;;;;;;26.00;23.50;;;;;5.86;58.78;102792.31;4939926;28;45443;-48
2023/01/23 17:29:18;;;;;;;;;27.50;22.75;;;;;5.86;58.76;102805.34;4939780;28;45389;-47
2023/01/23 17:31:45;;;;;;;;;26.00;24.50;;;;;5.84;58.73;102805.31;4939599;28;45529;-51
2023/01/23 17:34:27;;;;;;;;;27.00;24.75;;;;;5.85;58.78;102812.31;4922737;28;45546;-46
2023/01/23 17:36:54;;;;;;;;;23.25;19.00;;;;;5.86;58.71;102807.97;4937704;28;45467;-49
2023/01/23 17:39:20;;;;;;;;;28.50;22.00;;;;;5.86;58.74;102813.19;4940063;28;45483;-50
2023/01/23 17:41:45;;;;;;;;;22.25;18.00;;;;;5.86;58.79;102806.28;4926088;28;45559;-53
2023/01/23 17:44:11;;;;;;;;;28.25;24.75;;;;;5.86;58.76;102814.09;4922543;28;45408;-49
2023/01/23 17:46:38;;;;;;;;;26.00;22.50;;;;;5.85;58.71;102809.69;4939809;28;45547;-49
2023/01/23 17:49:24;;;;;;;;;32.25;27.00;;;;;5.85;58.64;102821.88;4939830;28;45895;-50
2023/01/23 17:51:49;;;;;;;;;34.25;24.75;;;;;5.84;58.62;102830.53;4937775;28;46389;-50
2023/01/23 17:54:17;;;;;;;;;25.50;22.50;;;;;5.85;58.64;102827.09;4939781;28;45265;-50